Terminal Aerodrome Forecast
Issued by NWS

Home | Current Version | Previous Version | Text Only | Print | Product List | Glossary On
Versions: 1 2 3 4 5 6 7 8 9 10 11 12 13
981
FTUS43 KMPX 270535
TAFAXN
TAF
KAXN 270535Z 2706/2806 26005KT P6SM SKC
     FM271200 26005KT P6SM BKN200
     FM271600 24010KT P6SM BKN120
     FM280300 21006KT P6SM BKN100=

USA.gov is the U.S. government's official web portal to all federal, state and local government web resources and services.